Time;durP1;ratioP1;P1;durP2;ratioP2;P2;SDS_P1;SDS_P2;PMS_P1;PMS_P2;Temp;Humidity;BMP_temperature;BMP_pressure;BME280_temperature;BME280_humidity;BME280_pressure;Samples;Min_cycle;Max_cycle;Signal;HPM_P1;HPM_P2
2023/02/19 00:01:25;;;;;;;13.83;11.77;;;;;;;;;;5085824;28;20176;-52
2023/02/19 00:03:52;;;;;;;13.80;12.40;;;;;;;;;;5087444;28;20187;-53
2023/02/19 00:06:19;;;;;;;16.87;13.97;;;;;;;;;;5087908;28;20611;-55
2023/02/19 00:08:45;;;;;;;16.57;13.13;;;;;;;;;;5085604;28;20187;-53
2023/02/19 00:11:12;;;;;;;14.17;12.67;;;;;;;;;;5080742;28;20199;-53
2023/02/19 00:13:39;;;;;;;14.20;12.80;;;;;;;;;;5082328;28;20679;-54
2023/02/19 00:16:06;;;;;;;14.30;12.80;;;;;;;;;;5088913;28;20219;-54
2023/02/19 00:18:32;;;;;;;12.03;10.83;;;;;;;;;;5088291;28;20176;-53
2023/02/19 00:20:58;;;;;;;14.00;12.60;;;;;;;;;;5076076;28;20207;-54
2023/02/19 00:23:24;;;;;;;13.10;11.63;;;;;;;;;;5087686;28;20184;-54
2023/02/19 00:25:50;;;;;;;12.97;11.57;;;;;;;;;;5077884;28;20188;-54
2023/02/19 00:28:16;;;;;;;13.53;11.93;;;;;;;;;;5082151;28;20266;-53
2023/02/19 00:30:42;;;;;;;12.40;11.23;;;;;;;;;;5081398;28;20215;-55
2023/02/19 00:33:08;;;;;;;13.37;11.83;;;;;;;;;;5089128;28;20175;-53
2023/02/19 00:35:34;;;;;;;11.63;10.53;;;;;;;;;;5089892;28;20183;-53
2023/02/19 00:38:00;;;;;;;12.23;11.00;;;;;;;;;;5085876;28;20184;-52
2023/02/19 00:40:26;;;;;;;12.53;11.33;;;;;;;;;;5083409;28;20263;-53
2023/02/19 00:42:53;;;;;;;12.57;11.33;;;;;;;;;;5082424;28;20636;-53
2023/02/19 00:45:19;;;;;;;13.50;12.13;;;;;;;;;;5090799;28;20662;-53
2023/02/19 00:47:45;;;;;;;13.93;12.47;;;;;;;;;;5082503;28;20179;-52
2023/02/19 00:50:11;;;;;;;14.33;12.80;;;;;;;;;;5080287;28;20188;-52
2023/02/19 00:52:37;;;;;;;13.33;11.93;;;;;;;;;;5082494;28;20207;-52
2023/02/19 00:55:03;;;;;;;13.13;11.93;;;;;;;;;;5088377;28;20765;-52
2023/02/19 00:57:29;;;;;;;13.37;11.97;;;;;;;;;;5075274;28;20222;-53
2023/02/19 00:59:55;;;;;;;11.37;10.37;;;;;;;;;;5079327;28;20679;-52
2023/02/19 01:02:21;;;;;;;11.53;10.37;;;;;;;;;;5081717;28;20188;-53
2023/02/19 01:04:47;;;;;;;12.57;11.37;;;;;;;;;;5084849;28;20180;-52
2023/02/19 01:07:13;;;;;;;11.30;10.30;;;;;;;;;;5078011;28;20183;-53
2023/02/19 01:09:39;;;;;;;13.07;11.87;;;;;;;;;;5078210;28;20883;-52
2023/02/19 01:12:06;;;;;;;12.67;11.03;;;;;;;;;;5080763;28;20221;-53
2023/02/19 01:14:32;;;;;;;12.37;11.00;;;;;;;;;;5087823;28;20176;-52
2023/02/19 01:16:58;;;;;;;11.77;10.53;;;;;;;;;;5082697;28;20220;-53
2023/02/19 01:19:25;;;;;;;12.00;10.83;;;;;;;;;;5082385;28;20179;-52
2023/02/19 01:21:51;;;;;;;10.67;9.50;;;;;;;;;;5077648;28;20241;-52
2023/02/19 01:24:17;;;;;;;13.13;11.73;;;;;;;;;;5084021;28;20180;-53
2023/02/19 01:26:43;;;;;;;11.57;10.47;;;;;;;;;;5080834;28;20233;-55
2023/02/19 01:29:09;;;;;;;12.07;10.10;;;;;;;;;;5086055;28;20228;-52
2023/02/19 01:31:35;;;;;;;11.53;10.33;;;;;;;;;;5081442;28;20200;-52
2023/02/19 01:34:02;;;;;;;11.77;10.53;;;;;;;;;;5084943;28;20208;-52
2023/02/19 01:36:29;;;;;;;10.83;9.73;;;;;;;;;;5077838;28;20643;-53
2023/02/19 01:38:55;;;;;;;10.33;9.33;;;;;;;;;;5086337;28;20172;-52
2023/02/19 01:41:23;;;;;;;10.07;8.67;;;;;;;;;;5080149;28;20601;-54
2023/02/19 01:43:57;;;;;;;12.13;9.80;;;;;;;;;;5082656;28;20511;-53
2023/02/19 01:46:27;;;;;;;10.93;9.70;;;;;;;;;;5079637;28;20176;-52
2023/02/19 01:48:53;;;;;;;13.10;10.77;;;;;;;;;;5081296;28;20266;-52
2023/02/19 01:51:21;;;;;;;10.83;9.73;;;;;;;;;;5084702;28;20195;-53
2023/02/19 01:53:49;;;;;;;13.20;11.70;;;;;;;;;;5083839;28;20168;-52
2023/02/19 01:56:17;;;;;;;12.37;11.17;;;;;;;;;;5084060;28;20231;-53
2023/02/19 01:58:44;;;;;;;12.60;10.50;;;;;;;;;;5080238;28;20737;-52
2023/02/19 02:01:10;;;;;;;13.43;9.83;;;;;;;;;;5071837;28;20256;-53
2023/02/19 02:03:37;;;;;;;11.80;10.60;;;;;;;;;;5086182;28;20214;-52
2023/02/19 02:06:07;;;;;;;13.73;12.30;;;;;;;;;;5077836;28;20900;-53
2023/02/19 02:11:19;;;;;;;12.60;10.63;;;;;;;;;;5086279;28;20940;-52
2023/02/19 02:13:45;;;;;;;13.53;10.67;;;;;;;;;;5073577;28;20596;-53
2023/02/19 02:16:16;;;;;;;14.83;11.60;;;;;;;;;;5081123;28;20246;-53
2023/02/19 02:19:01;;;;;;;15.33;11.97;;;;;;;;;;5088787;28;20513;-52
2023/02/19 02:21:51;;;;;;;13.37;11.07;;;;;;;;;;5078760;28;20202;-53
2023/02/19 02:24:24;;;;;;;14.90;11.97;;;;;;;;;;5082936;28;20183;-52
2023/02/19 02:30:07;;;;;;;14.67;12.10;;;;;;;;;;5082880;28;20171;-52
2023/02/19 02:32:37;;;;;;;14.77;12.50;;;;;;;;;;5079943;28;20294;-55
2023/02/19 02:35:10;;;;;;;13.20;11.80;;;;;;;;;;5078405;28;20183;-53
2023/02/19 02:37:38;;;;;;;16.30;12.50;;;;;;;;;;5082970;28;20171;-52
2023/02/19 02:40:06;;;;;;;14.77;12.60;;;;;;;;;;5078326;28;20877;-53
2023/02/19 02:42:33;;;;;;;15.47;12.77;;;;;;;;;;5082605;28;20182;-53
2023/02/19 02:45:34;;;;;;;15.97;13.53;;;;;;;;;;5079161;28;20991;-53
2023/02/19 02:48:07;;;;;;;19.33;13.43;;;;;;;;;;5080275;28;20183;-54
2023/02/19 02:50:53;;;;;;;14.73;12.73;;;;;;;;;;5083000;28;20183;-55
2023/02/19 02:56:18;;;;;;;16.27;12.97;;;;;;;;;;5084552;28;20222;-52
2023/02/19 02:58:44;;;;;;;14.77;12.80;;;;;;;;;;5078415;28;20565;-53
2023/02/19 03:04:02;;;;;;;18.17;12.53;;;;;;;;;;5082317;28;20183;-53
2023/02/19 03:06:30;;;;;;;16.23;11.83;;;;;;;;;;5081719;28;20654;-53
2023/02/19 03:09:04;;;;;;;13.43;11.83;;;;;;;;;;5080586;28;20168;-53
2023/02/19 03:19:54;;;;;;;16.10;12.33;;;;;;;;;;5079085;28;20179;-53
2023/02/19 03:22:23;;;;;;;14.07;12.13;;;;;;;;;;5079809;28;20187;-55
2023/02/19 03:27:38;;;;;;;15.53;12.60;;;;;;;;;;5076572;28;20558;-53
2023/02/19 03:30:08;;;;;;;17.23;12.00;;;;;;;;;;5081433;28;20176;-54
2023/02/19 03:32:37;;;;;;;12.80;11.30;;;;;;;;;;5082532;28;20218;-53
2023/02/19 03:35:11;;;;;;;14.10;12.53;;;;;;;;;;5086073;28;20615;-53
2023/02/19 03:37:41;;;;;;;14.93;11.87;;;;;;;;;;5080432;28;20210;-53
2023/02/19 03:40:07;;;;;;;13.77;11.53;;;;;;;;;;5075769;28;20180;-55
2023/02/19 03:42:33;;;;;;;17.67;12.73;;;;;;;;;;5078160;28;20747;-53
2023/02/19 03:45:11;;;;;;;16.90;12.10;;;;;;;;;;5073328;28;20177;-52
2023/02/19 03:47:43;;;;;;;17.73;11.93;;;;;;;;;;5086540;28;20175;-53
2023/02/19 03:50:18;;;;;;;13.37;11.57;;;;;;;;;;5076153;28;20172;-53
2023/02/19 03:52:47;;;;;;;16.10;12.60;;;;;;;;;;5079764;28;20906;-53
2023/02/19 03:55:17;;;;;;;14.60;11.00;;;;;;;;;;5077395;28;20180;-53
2023/02/19 03:57:47;;;;;;;18.07;11.30;;;;;;;;;;5073686;28;20184;-52
2023/02/19 04:00:16;;;;;;;13.53;10.90;;;;;;;;;;5080478;28;20667;-53
2023/02/19 04:02:48;;;;;;;15.23;10.70;;;;;;;;;;5089096;28;20198;-53
2023/02/19 04:05:16;;;;;;;15.17;11.67;;;;;;;;;;5084385;28;20169;-53
2023/02/19 04:07:45;;;;;;;13.50;10.23;;;;;;;;;;5083885;28;20208;-54
2023/02/19 04:10:12;;;;;;;16.47;10.77;;;;;;;;;;5081461;28;20188;-54
2023/02/19 04:12:40;;;;;;;16.53;10.97;;;;;;;;;;5081149;28;20206;-53
2023/02/19 04:15:09;;;;;;;17.17;11.80;;;;;;;;;;5085337;28;20543;-53
2023/02/19 04:17:37;;;;;;;12.47;10.03;;;;;;;;;;5085175;28;20215;-52
2023/02/19 04:20:06;;;;;;;15.50;10.47;;;;;;;;;;5090598;28;20615;-54
2023/02/19 04:22:32;;;;;;;12.20;9.50;;;;;;;;;;5084054;28;20195;-53
2023/02/19 04:24:59;;;;;;;14.80;10.37;;;;;;;;;;5085927;28;20184;-54
2023/02/19 04:27:26;;;;;;;13.20;9.83;;;;;;;;;;5086548;28;20172;-54
2023/02/19 04:29:52;;;;;;;11.60;9.27;;;;;;;;;;5088227;28;20215;-53
2023/02/19 04:32:18;;;;;;;14.20;9.23;;;;;;;;;;5085288;28;20663;-53
2023/02/19 04:34:44;;;;;;;12.70;9.70;;;;;;;;;;5085783;28;20176;-53
2023/02/19 04:37:10;;;;;;;14.80;9.23;;;;;;;;;;5082364;28;20176;-55
2023/02/19 04:39:36;;;;;;;10.83;8.63;;;;;;;;;;5089406;28;20184;-54
2023/02/19 04:42:02;;;;;;;12.90;8.50;;;;;;;;;;5081663;28;20234;-53
2023/02/19 04:44:28;;;;;;;15.73;9.40;;;;;;;;;;5077370;28;20183;-54
2023/02/19 04:46:55;;;;;;;14.50;8.00;;;;;;;;;;5085052;28;20168;-53
2023/02/19 04:49:21;;;;;;;10.33;8.17;;;;;;;;;;5087531;28;20667;-53
2023/02/19 04:51:47;;;;;;;13.23;8.67;;;;;;;;;;5081299;28;20573;-54
2023/02/19 04:54:13;;;;;;;13.80;8.43;;;;;;;;;;5078174;28;20952;-54
2023/02/19 04:56:39;;;;;;;10.30;8.17;;;;;;;;;;5078707;28;20211;-55
2023/02/19 04:59:05;;;;;;;9.53;7.90;;;;;;;;;;5086262;28;20168;-53
2023/02/19 05:01:31;;;;;;;13.80;9.30;;;;;;;;;;5079680;28;20211;-53
2023/02/19 05:03:57;;;;;;;12.10;8.27;;;;;;;;;;5085270;28;20184;-54
2023/02/19 05:06:23;;;;;;;13.73;9.13;;;;;;;;;;5079361;28;20323;-53
2023/02/19 05:08:49;;;;;;;10.97;7.80;;;;;;;;;;5079670;28;20440;-53
2023/02/19 05:11:15;;;;;;;13.70;8.40;;;;;;;;;;5080636;28;20222;-52
2023/02/19 05:13:41;;;;;;;10.10;8.17;;;;;;;;;;5083622;28;20173;-55
2023/02/19 05:16:12;;;;;;;11.53;7.40;;;;;;;;;;5065854;28;20264;-56
2023/02/19 05:18:39;;;;;;;10.90;7.67;;;;;;;;;;5083214;28;20238;-53
2023/02/19 05:21:05;;;;;;;12.17;7.70;;;;;;;;;;5088206;28;20177;-53
2023/02/19 05:23:31;;;;;;;11.93;7.97;;;;;;;;;;5088062;28;20195;-53
2023/02/19 05:25:57;;;;;;;14.33;7.93;;;;;;;;;;5081873;28;20184;-54
2023/02/19 05:28:27;;;;;;;10.47;7.23;;;;;;;;;;5084861;28;20172;-53
2023/02/19 05:30:54;;;;;;;12.53;7.90;;;;;;;;;;5078137;28;20216;-53
2023/02/19 05:33:21;;;;;;;9.97;7.80;;;;;;;;;;5083692;28;20206;-54
2023/02/19 05:35:49;;;;;;;9.77;6.83;;;;;;;;;;5072091;28;20191;-54
2023/02/19 05:38:15;;;;;;;15.47;7.80;;;;;;;;;;5084588;28;20611;-53
2023/02/19 05:40:41;;;;;;;8.97;7.37;;;;;;;;;;5085129;28;20183;-53
2023/02/19 05:43:07;;;;;;;10.60;7.60;;;;;;;;;;5080078;28;20183;-56
2023/02/19 05:45:34;;;;;;;10.13;7.07;;;;;;;;;;5088099;28;20207;-54
2023/02/19 05:48:00;;;;;;;11.53;7.80;;;;;;;;;;5086861;28;20195;-53
2023/02/19 05:50:27;;;;;;;11.43;7.90;;;;;;;;;;5091022;28;20182;-55
2023/02/19 05:52:53;;;;;;;13.87;7.83;;;;;;;;;;5075571;28;20198;-53
2023/02/19 05:55:19;;;;;;;12.13;7.30;;;;;;;;;;5081471;28;20698;-53
2023/02/19 05:57:48;;;;;;;12.20;7.40;;;;;;;;;;5083317;28;20904;-53
2023/02/19 06:00:15;;;;;;;9.47;7.03;;;;;;;;;;5081424;28;20173;-54
2023/02/19 06:02:42;;;;;;;11.63;7.17;;;;;;;;;;5083099;28;20178;-53
2023/02/19 06:05:08;;;;;;;10.67;7.77;;;;;;;;;;5086425;28;20207;-55
2023/02/19 06:07:34;;;;;;;10.47;6.83;;;;;;;;;;5081786;28;20636;-53
2023/02/19 06:10:00;;;;;;;9.97;7.37;;;;;;;;;;5088224;28;20598;-53
2023/02/19 06:12:26;;;;;;;13.33;6.80;;;;;;;;;;5081396;28;20643;-54
2023/02/19 06:14:52;;;;;;;9.87;6.67;;;;;;;;;;5082544;28;20810;-55
2023/02/19 06:17:19;;;;;;;8.10;6.23;;;;;;;;;;5086555;28;20264;-53
2023/02/19 06:19:45;;;;;;;15.67;7.20;;;;;;;;;;5078371;28;20183;-53
2023/02/19 06:22:11;;;;;;;9.77;7.37;;;;;;;;;;5087379;28;20210;-56
2023/02/19 06:24:37;;;;;;;10.80;7.07;;;;;;;;;;5077924;28;20234;-53
2023/02/19 06:27:06;;;;;;;9.30;6.47;;;;;;;;;;5077015;28;20195;-54
2023/02/19 06:29:32;;;;;;;9.33;6.27;;;;;;;;;;5081104;28;20606;-54
2023/02/19 06:31:59;;;;;;;8.93;6.17;;;;;;;;;;5085187;28;20212;-54
2023/02/19 06:34:25;;;;;;;16.07;8.00;;;;;;;;;;5080540;28;20191;-54
2023/02/19 06:36:51;;;;;;;10.33;7.40;;;;;;;;;;5078227;28;20659;-54
2023/02/19 06:39:17;;;;;;;8.83;6.03;;;;;;;;;;5084130;28;20175;-53
2023/02/19 06:41:43;;;;;;;10.50;6.77;;;;;;;;;;5084369;28;20976;-54
2023/02/19 06:44:09;;;;;;;13.33;7.03;;;;;;;;;;5079794;28;20262;-55
2023/02/19 06:46:36;;;;;;;15.20;7.13;;;;;;;;;;5080055;28;20705;-54
2023/02/19 06:49:03;;;;;;;12.23;6.53;;;;;;;;;;5083428;28;20856;-53
2023/02/19 06:51:31;;;;;;;10.43;7.53;;;;;;;;;;5082724;28;20242;-53
2023/02/19 06:53:57;;;;;;;12.97;7.10;;;;;;;;;;5084602;28;20500;-53
2023/02/19 06:56:23;;;;;;;9.50;6.53;;;;;;;;;;5074640;28;20948;-55
2023/02/19 06:58:50;;;;;;;10.77;6.43;;;;;;;;;;5078374;28;20184;-54
2023/02/19 07:01:16;;;;;;;9.57;6.13;;;;;;;;;;5084138;28;20655;-54
2023/02/19 07:03:42;;;;;;;9.33;5.87;;;;;;;;;;5077118;28;20380;-53
2023/02/19 07:06:08;;;;;;;14.53;5.77;;;;;;;;;;5077906;28;20193;-56
2023/02/19 07:08:34;;;;;;;13.07;5.87;;;;;;;;;;5084340;28;20522;-54
2023/02/19 07:11:00;;;;;;;15.23;6.67;;;;;;;;;;5076620;28;20249;-54
2023/02/19 07:13:26;;;;;;;6.83;5.43;;;;;;;;;;5085854;28;20275;-54
2023/02/19 07:15:57;;;;;;;6.87;5.70;;;;;;;;;;5089164;28;20176;-54
2023/02/19 07:18:23;;;;;;;11.07;5.80;;;;;;;;;;5088260;28;20186;-54
2023/02/19 07:20:49;;;;;;;9.93;6.03;;;;;;;;;;5088513;28;20179;-53
2023/02/19 07:23:15;;;;;;;6.57;5.47;;;;;;;;;;5080593;28;20186;-54
2023/02/19 07:25:41;;;;;;;13.07;5.70;;;;;;;;;;5079457;28;20175;-55
2023/02/19 07:28:07;;;;;;;8.67;5.80;;;;;;;;;;5083771;28;20716;-56
2023/02/19 07:30:34;;;;;;;10.37;6.30;;;;;;;;;;5084456;28;20184;-54
2023/02/19 07:33:00;;;;;;;11.03;5.73;;;;;;;;;;5074282;28;20180;-55
2023/02/19 07:35:26;;;;;;;7.07;5.60;;;;;;;;;;5081682;28;20179;-53
2023/02/19 07:37:52;;;;;;;8.33;5.80;;;;;;;;;;5091462;28;20187;-53
2023/02/19 07:40:18;;;;;;;8.50;6.37;;;;;;;;;;5087885;28;20259;-53
2023/02/19 07:42:44;;;;;;;9.30;5.70;;;;;;;;;;5076943;28;20180;-54
2023/02/19 07:45:10;;;;;;;7.17;5.80;;;;;;;;;;5088125;28;20183;-53
2023/02/19 07:47:36;;;;;;;9.37;6.33;;;;;;;;;;5088135;28;20184;-54
2023/02/19 07:50:02;;;;;;;8.13;5.80;;;;;;;;;;5084207;28;20184;-53
2023/02/19 07:52:29;;;;;;;10.30;6.33;;;;;;;;;;5090883;28;20291;-53
2023/02/19 07:54:55;;;;;;;8.37;6.20;;;;;;;;;;5081765;28;20179;-53
2023/02/19 07:57:21;;;;;;;9.63;6.43;;;;;;;;;;5086302;28;20266;-54
2023/02/19 07:59:47;;;;;;;8.33;5.80;;;;;;;;;;5084788;28;20183;-54
2023/02/19 08:05:02;;;;;;;8.63;6.23;;;;;;;;;;5090807;28;20187;-54
2023/02/19 08:07:31;;;;;;;11.70;6.40;;;;;;;;;;5082664;28;20180;-53
2023/02/19 08:15:27;;;;;;;10.27;6.67;;;;;;;;;;5084749;28;20692;-53
2023/02/19 08:17:53;;;;;;;9.80;7.03;;;;;;;;;;5085111;28;20235;-53
2023/02/19 08:20:19;;;;;;;10.77;6.53;;;;;;;;;;5089803;28;20224;-54
2023/02/19 08:22:45;;;;;;;12.00;6.97;;;;;;;;;;5092526;28;20871;-53
2023/02/19 08:25:11;;;;;;;9.40;7.30;;;;;;;;;;5089174;28;20229;-53
2023/02/19 08:27:37;;;;;;;6.87;5.83;;;;;;;;;;5082070;28;20188;-54
2023/02/19 08:30:04;;;;;;;7.07;5.97;;;;;;;;;;5082602;28;20179;-56
2023/02/19 08:32:30;;;;;;;8.33;7.40;;;;;;;;;;5079679;28;20219;-54
2023/02/19 08:34:56;;;;;;;9.13;6.77;;;;;;;;;;5088126;28;20180;-53
2023/02/19 08:37:22;;;;;;;7.97;6.63;;;;;;;;;;5081226;28;20183;-53
2023/02/19 08:39:48;;;;;;;11.77;6.80;;;;;;;;;;5082962;28;20176;-54
2023/02/19 08:42:14;;;;;;;11.83;7.30;;;;;;;;;;5081726;28;20211;-54
2023/02/19 08:44:40;;;;;;;10.47;7.17;;;;;;;;;;5089124;28;20184;-55
2023/02/19 08:47:06;;;;;;;9.00;6.47;;;;;;;;;;5085714;28;20192;-53
2023/02/19 08:49:32;;;;;;;12.93;7.30;;;;;;;;;;5080974;28;20216;-53
2023/02/19 08:51:58;;;;;;;11.47;6.87;;;;;;;;;;5087158;28;20207;-53
2023/02/19 08:54:25;;;;;;;14.30;8.10;;;;;;;;;;5086076;28;20182;-53
2023/02/19 08:56:51;;;;;;;10.43;6.40;;;;;;;;;;5082584;28;20214;-53
2023/02/19 08:59:19;;;;;;;8.60;6.97;;;;;;;;;;5081428;28;20230;-53
2023/02/19 09:01:45;;;;;;;12.50;7.33;;;;;;;;;;5081790;28;20180;-54
2023/02/19 09:04:14;;;;;;;10.47;6.50;;;;;;;;;;5086828;28;20226;-54
2023/02/19 09:06:40;;;;;;;10.77;6.37;;;;;;;;;;5085389;28;20237;-54
2023/02/19 09:09:06;;;;;;;11.10;6.97;;;;;;;;;;5084529;28;20199;-54
2023/02/19 09:11:32;;;;;;;8.23;7.33;;;;;;;;;;5083239;28;20211;-53
2023/02/19 09:13:58;;;;;;;8.80;7.10;;;;;;;;;;5085998;28;20168;-54
2023/02/19 09:16:24;;;;;;;7.70;6.63;;;;;;;;;;5083032;28;20227;-54
2023/02/19 09:18:50;;;;;;;11.60;6.40;;;;;;;;;;5088820;28;20225;-53
2023/02/19 09:21:16;;;;;;;9.40;6.67;;;;;;;;;;5086223;28;20182;-55
2023/02/19 09:23:42;;;;;;;9.47;6.97;;;;;;;;;;5088877;28;20542;-52
2023/02/19 09:26:10;;;;;;;10.93;7.10;;;;;;;;;;5085422;28;20209;-52
2023/02/19 09:28:38;;;;;;;7.93;7.00;;;;;;;;;;5082354;28;20188;-54
2023/02/19 09:31:05;;;;;;;11.87;6.90;;;;;;;;;;5086408;28;20637;-54
2023/02/19 09:33:31;;;;;;;9.77;7.43;;;;;;;;;;5084089;28;20197;-54
2023/02/19 09:36:00;;;;;;;10.73;6.60;;;;;;;;;;5079210;28;20812;-53
2023/02/19 09:38:28;;;;;;;10.53;7.27;;;;;;;;;;5083400;28;20183;-54
2023/02/19 09:40:54;;;;;;;9.53;6.73;;;;;;;;;;5085124;28;20228;-53
2023/02/19 09:43:22;;;;;;;10.27;6.97;;;;;;;;;;5085422;28;20171;-54
2023/02/19 09:45:51;;;;;;;11.17;8.30;;;;;;;;;;5081074;28;20266;-54
2023/02/19 09:48:18;;;;;;;7.80;6.10;;;;;;;;;;5083117;28;20172;-53
2023/02/19 09:50:47;;;;;;;9.03;7.03;;;;;;;;;;5084954;28;20202;-53
2023/02/19 09:53:22;;;;;;;9.50;6.37;;;;;;;;;;5088399;28;20187;-53
2023/02/19 09:55:49;;;;;;;12.00;6.53;;;;;;;;;;5086645;28;20199;-54
2023/02/19 09:58:32;;;;;;;8.63;5.63;;;;;;;;;;5089778;28;20207;-54
2023/02/19 10:00:59;;;;;;;7.90;5.57;;;;;;;;;;5076825;28;20180;-55
2023/02/19 10:03:40;;;;;;;6.87;6.17;;;;;;;;;;5083305;28;20275;-56
2023/02/19 10:06:28;;;;;;;7.63;6.20;;;;;;;;;;5079112;28;20180;-53
2023/02/19 10:09:11;;;;;;;7.13;5.47;;;;;;;;;;5084043;28;20184;-53
2023/02/19 10:11:37;;;;;;;6.00;5.40;;;;;;;;;;5079828;28;20218;-55
2023/02/19 10:14:08;;;;;;;7.13;5.30;;;;;;;;;;5089625;28;20180;-53
2023/02/19 10:16:34;;;;;;;13.80;6.33;;;;;;;;;;5078121;28;20239;-53
2023/02/19 10:19:00;;;;;;;7.33;5.23;;;;;;;;;;5086565;28;20183;-55
2023/02/19 10:21:27;;;;;;;6.57;5.40;;;;;;;;;;5086362;28;20214;-53
2023/02/19 10:23:54;;;;;;;146.93;16.67;;;;;;;;;;5081127;28;20702;-53
2023/02/19 10:26:21;;;;;;;11.10;5.67;;;;;;;;;;5077863;28;20176;-53
2023/02/19 10:28:47;;;;;;;7.37;5.57;;;;;;;;;;5079514;28;20177;-55
2023/02/19 10:31:21;;;;;;;9.10;6.03;;;;;;;;;;5082892;28;20561;-53
2023/02/19 10:33:51;;;;;;;13.27;5.47;;;;;;;;;;5079150;28;20910;-53
2023/02/19 10:36:25;;;;;;;6.83;5.10;;;;;;;;;;5081965;28;20172;-53
2023/02/19 10:38:51;;;;;;;7.67;5.60;;;;;;;;;;5085728;28;20258;-54
2023/02/19 10:41:21;;;;;;;8.23;5.10;;;;;;;;;;5081723;28;20180;-53
2023/02/19 10:44:01;;;;;;;7.67;5.33;;;;;;;;;;5084756;28;20207;-54
2023/02/19 10:46:36;;;;;;;7.13;5.80;;;;;;;;;;5084027;28;20190;-54
2023/02/19 10:49:04;;;;;;;8.03;5.70;;;;;;;;;;5081608;28;20270;-55
2023/02/19 10:51:40;;;;;;;10.27;5.50;;;;;;;;;;5085386;28;20199;-54
2023/02/19 10:54:15;;;;;;;8.17;5.90;;;;;;;;;;5080017;28;20176;-55
2023/02/19 10:56:41;;;;;;;8.77;5.70;;;;;;;;;;5082515;28;20906;-55
2023/02/19 10:59:23;;;;;;;7.63;5.73;;;;;;;;;;5082888;28;20247;-53
2023/02/19 11:02:12;;;;;;;11.37;5.43;;;;;;;;;;5086112;28;20191;-53
2023/02/19 11:04:38;;;;;;;44.77;7.43;;;;;;;;;;5082446;28;20191;-55
2023/02/19 11:07:11;;;;;;;22.70;6.17;;;;;;;;;;5081605;28;20172;-54
2023/02/19 11:09:38;;;;;;;17.90;5.90;;;;;;;;;;5080554;28;20183;-53
2023/02/19 11:12:05;;;;;;;4.90;4.30;;;;;;;;;;5084422;28;20214;-53
2023/02/19 11:14:32;;;;;;;8.52;5.28;;;;;;;;;;5086687;28;20430;-54
2023/02/19 11:16:59;;;;;;;7.47;5.20;;;;;;;;;;5085299;28;20431;-54
2023/02/19 11:19:27;;;;;;;8.55;5.65;;;;;;;;;;5083286;28;20421;-54
2023/02/19 11:21:54;;;;;;;6.43;4.87;;;;;;;;;;5089273;28;20598;-55
2023/02/19 11:24:23;;;;;;;6.37;5.57;;;;;;;;;;5087370;28;20647;-54
2023/02/19 11:26:49;;;;;;;5.30;4.80;;;;;;;;;;5084540;28;20179;-54
2023/02/19 11:29:24;;;;;;;7.20;4.83;;;;;;;;;;5088509;28;20225;-53
2023/02/19 11:31:50;;;;;;;6.73;5.10;;;;;;;;;;5083275;28;20214;-54
2023/02/19 11:34:28;;;;;;;6.13;5.07;;;;;;;;;;5089199;28;20171;-55
2023/02/19 11:37:08;;;;;;;9.50;5.33;;;;;;;;;;5087155;28;20181;-53
2023/02/19 11:39:34;;;;;;;6.00;4.63;;;;;;;;;;5090990;28;20196;-54
2023/02/19 11:42:11;;;;;;;5.20;4.70;;;;;;;;;;5079051;28;20180;-54
2023/02/19 11:44:38;;;;;;;5.17;4.70;;;;;;;;;;5085508;28;20218;-53
2023/02/19 11:47:22;;;;;;;8.80;4.93;;;;;;;;;;5089744;28;20561;-53
2023/02/19 11:50:07;;;;;;;5.93;4.57;;;;;;;;;;5080598;28;20277;-55
2023/02/19 11:52:36;;;;;;;5.33;4.77;;;;;;;;;;5082659;28;20214;-55
2023/02/19 11:55:13;;;;;;;5.23;4.33;;;;;;;;;;5079884;28;20179;-53
2023/02/19 11:57:47;;;;;;;4.53;3.60;;;;;;;;;;5089084;28;20167;-53
2023/02/19 12:00:26;;;;;;;3.90;3.47;;;;;;;;;;5085527;28;20262;-54
2023/02/19 12:03:11;;;;;;;4.20;3.70;;;;;;;;;;5084730;28;20241;-53
2023/02/19 12:06:03;;;;;;;3.53;3.23;;;;;;;;;;5084705;28;20180;-53
2023/02/19 12:08:58;;;;;;;3.53;3.20;;;;;;;;;;5046497;28;20615;-54
2023/02/19 12:11:24;;;;;;;3.23;3.03;;;;;;;;;;5084605;28;20208;-53
2023/02/19 12:13:58;;;;;;;2.67;2.47;;;;;;;;;;5085651;28;20176;-53
2023/02/19 12:16:28;;;;;;;4.27;2.67;;;;;;;;;;5075306;28;20219;-53
2023/02/19 12:18:54;;;;;;;2.60;2.40;;;;;;;;;;5073484;28;20373;-53
2023/02/19 12:21:24;;;;;;;3.60;2.60;;;;;;;;;;5084783;28;20210;-53
2023/02/19 12:24:02;;;;;;;3.60;2.77;;;;;;;;;;5079739;28;20180;-53
2023/02/19 12:26:58;;;;;;;2.67;2.43;;;;;;;;;;5089031;28;20274;-53
2023/02/19 12:29:51;;;;;;;4.57;2.80;;;;;;;;;;5081881;28;20613;-53
2023/02/19 12:32:26;;;;;;;2.67;2.33;;;;;;;;;;5047731;28;20220;-53
2023/02/19 12:35:19;;;;;;;3.20;2.73;;;;;;;;;;5085727;28;20195;-54
2023/02/19 12:38:06;;;;;;;2.90;2.40;;;;;;;;;;5080071;28;20639;-54
2023/02/19 12:40:50;;;;;;;2.90;2.70;;;;;;;;;;5081149;28;20188;-53
2023/02/19 12:43:18;;;;;;;2.63;2.43;;;;;;;;;;5080654;28;20186;-53
2023/02/19 12:46:02;;;;;;;3.30;2.73;;;;;;;;;;5087747;28;20193;-54
2023/02/19 12:48:35;;;;;;;2.57;2.37;;;;;;;;;;5083922;28;20263;-52
2023/02/19 12:51:13;;;;;;;3.07;2.50;;;;;;;;;;5080885;28;20176;-53
2023/02/19 12:53:39;;;;;;;4.37;2.60;;;;;;;;;;5079926;28;20661;-54
2023/02/19 12:56:11;;;;;;;2.90;2.63;;;;;;;;;;5086624;28;20207;-53
2023/02/19 12:58:45;;;;;;;3.30;2.57;;;;;;;;;;5083854;28;20184;-53
2023/02/19 13:01:15;;;;;;;3.30;3.00;;;;;;;;;;5085694;28;20172;-54
2023/02/19 13:03:48;;;;;;;2.70;2.50;;;;;;;;;;5081976;28;20535;-54
2023/02/19 13:06:19;;;;;;;3.53;2.53;;;;;;;;;;5085819;28;20171;-53
2023/02/19 13:08:48;;;;;;;2.80;2.60;;;;;;;;;;5085925;28;20581;-53
2023/02/19 13:11:21;;;;;;;3.83;2.60;;;;;;;;;;5079277;28;20211;-54
2023/02/19 13:13:58;;;;;;;3.20;2.90;;;;;;;;;;5083849;28;20309;-54
2023/02/19 13:16:25;;;;;;;3.37;3.07;;;;;;;;;;5084187;28;20682;-53
2023/02/19 13:19:02;;;;;;;3.93;3.53;;;;;;;;;;5089529;28;20180;-53
2023/02/19 13:24:20;;;;;;;3.50;2.97;;;;;;;;;;5079047;28;20279;-53
2023/02/19 13:27:02;;;;;;;3.47;3.10;;;;;;;;;;5075143;28;20168;-53
2023/02/19 13:29:40;;;;;;;3.83;3.50;;;;;;;;;;5085168;28;20196;-54
2023/02/19 13:32:09;;;;;;;4.63;3.87;;;;;;;;;;5081160;28;20211;-53
2023/02/19 13:34:54;;;;;;;4.40;4.00;;;;;;;;;;5082343;28;20180;-53
2023/02/19 13:37:20;;;;;;;4.83;4.43;;;;;;;;;;5083943;28;20704;-54
2023/02/19 13:39:56;;;;;;;7.00;4.57;;;;;;;;;;5086929;28;20176;-54
2023/02/19 13:42:28;;;;;;;5.03;4.17;;;;;;;;;;5061953;28;20182;-54
2023/02/19 13:44:54;;;;;;;4.53;4.13;;;;;;;;;;5072612;28;20640;-53
2023/02/19 13:47:39;;;;;;;5.47;4.67;;;;;;;;;;5080933;28;20729;-53
2023/02/19 13:50:06;;;;;;;4.60;4.20;;;;;;;;;;5082154;28;20965;-55
2023/02/19 13:52:34;;;;;;;5.50;4.40;;;;;;;;;;5086206;28;20196;-53
2023/02/19 13:55:20;;;;;;;5.90;4.57;;;;;;;;;;5087134;28;20187;-53
2023/02/19 13:57:47;;;;;;;6.43;5.23;;;;;;;;;;5081931;28;20167;-53
2023/02/19 14:00:31;;;;;;;7.07;5.17;;;;;;;;;;5081281;28;20184;-53
2023/02/19 14:03:20;;;;;;;5.93;4.93;;;;;;;;;;5085823;28;20180;-53
2023/02/19 14:06:00;;;;;;;8.83;5.43;;;;;;;;;;5048148;28;20199;-53
2023/02/19 14:08:45;;;;;;;8.07;6.00;;;;;;;;;;5074426;28;20271;-53
2023/02/19 14:11:13;;;;;;;8.20;6.40;;;;;;;;;;5075028;28;20662;-54
2023/02/19 14:13:51;;;;;;;7.87;6.43;;;;;;;;;;5080807;28;20181;-53
2023/02/19 14:16:38;;;;;;;9.87;6.87;;;;;;;;;;5071508;28;20679;-53
2023/02/19 14:19:13;;;;;;;10.47;7.00;;;;;;;;;;5072095;28;20177;-54
2023/02/19 14:21:42;;;;;;;7.97;6.53;;;;;;;;;;5081133;28;20263;-53
2023/02/19 14:24:14;;;;;;;8.60;6.60;;;;;;;;;;5083167;28;20287;-53
2023/02/19 14:26:40;;;;;;;11.30;7.53;;;;;;;;;;5086091;28;20184;-53
2023/02/19 14:29:08;;;;;;;9.63;7.20;;;;;;;;;;5083541;28;20210;-55
2023/02/19 14:31:36;;;;;;;9.37;7.60;;;;;;;;;;5082947;28;20226;-54
2023/02/19 14:34:07;;;;;;;13.17;8.03;;;;;;;;;;5085667;28;20176;-54
2023/02/19 14:36:39;;;;;;;9.53;8.30;;;;;;;;;;5084463;28;20187;-53
2023/02/19 14:39:39;;;;;;;10.40;7.67;;;;;;;;;;5080365;28;20181;-54
2023/02/19 14:42:07;;;;;;;10.80;8.77;;;;;;;;;;5028079;28;20538;-54
2023/02/19 14:44:52;;;;;;;8.50;7.70;;;;;;;;;;5077370;28;20184;-53
2023/02/19 14:47:22;;;;;;;10.97;8.77;;;;;;;;;;5087779;28;20172;-53
2023/02/19 14:49:54;;;;;;;9.53;8.63;;;;;;;;;;5081141;28;20628;-53
2023/02/19 14:52:27;;;;;;;9.27;7.97;;;;;;;;;;5078399;28;20708;-54
2023/02/19 14:54:53;;;;;;;9.13;8.00;;;;;;;;;;5089418;28;20210;-53
2023/02/19 14:57:24;;;;;;;8.63;7.83;;;;;;;;;;5085473;28;20188;-53
2023/02/19 14:59:57;;;;;;;11.00;9.47;;;;;;;;;;5081998;28;20811;-54
2023/02/19 15:02:24;;;;;;;11.17;8.47;;;;;;;;;;5085687;28;20612;-54
2023/02/19 15:04:51;;;;;;;8.67;7.70;;;;;;;;;;5082243;28;20184;-54
2023/02/19 15:07:22;;;;;;;10.93;8.40;;;;;;;;;;5078592;28;20188;-54
2023/02/19 15:09:50;;;;;;;9.37;7.97;;;;;;;;;;5079646;28;20184;-55
2023/02/19 15:12:18;;;;;;;10.60;7.27;;;;;;;;;;5087425;28;20353;-52
2023/02/19 15:14:45;;;;;;;9.90;7.17;;;;;;;;;;5080893;28;20631;-54
2023/02/19 15:17:14;;;;;;;8.97;7.83;;;;;;;;;;5080435;28;20232;-53
2023/02/19 15:19:42;;;;;;;10.87;8.23;;;;;;;;;;5077498;28;20172;-53
2023/02/19 15:22:14;;;;;;;9.80;8.73;;;;;;;;;;5085724;28;20775;-54